< < Back
Terminal Aerodrome Forecast


Current Version              Previous Versions:   1  2  3  4  5  6  7  8  9  

Terminal Aerodrome Forecast

307
FTUS42 KTAE 012300
TAFDHN
TAF
KDHN 012334Z 0200/0224 20008KT P6SM SCT060 BKN250
     FM020200 25003KT P6SM SCT250
     FM021500 30006KT P6SM FEW040=

Latest METAR

033
SAUS70 KWBC 021700 RRB
MTRDHN
METAR KDHN 021653Z 19006KT 10SM FEW025 33/19 A3013 RMK AO2 SLP195
T03330194


USA.gov is the U.S. government's official web portal to all federal, state and local government web resources and services.